createdAt,value
2017-08-02T00:00:03.973Z,22.19
2017-08-02T00:01:13.954Z,22.21
2017-08-02T00:02:23.943Z,22.19
2017-08-02T00:03:34.536Z,22.16
2017-08-02T00:04:44.816Z,22.19
2017-08-02T00:05:54.788Z,22.16
2017-08-02T00:07:05.076Z,22.14
2017-08-02T00:08:15.366Z,22.06
2017-08-02T00:09:25.296Z,22.07
2017-08-02T00:10:35.561Z,22.01
2017-08-02T00:11:45.853Z,22
2017-08-02T00:12:55.824Z,22.03
2017-08-02T00:14:06.104Z,22.07
2017-08-02T00:15:16.640Z,22.04
2017-08-02T00:16:26.926Z,22.03
2017-08-02T00:17:37.223Z,22.04
2017-08-02T00:18:47.191Z,22.01
2017-08-02T00:19:57.159Z,21.85
2017-08-02T00:21:07.075Z,21.89
2017-08-02T00:22:17.368Z,21.96
2017-08-02T00:23:27.653Z,21.96
2017-08-02T00:24:37.618Z,21.84
2017-08-02T00:25:47.594Z,21.88
2017-08-02T00:26:58.127Z,21.88
2017-08-02T00:28:08.406Z,21.84
2017-08-02T00:29:18.384Z,21.92
2017-08-02T00:30:28.356Z,21.88
2017-08-02T00:31:38.633Z,21.85
2017-08-02T00:32:49.224Z,21.81
2017-08-02T00:33:59.518Z,21.78
2017-08-02T00:35:09.809Z,21.81
2017-08-02T00:36:20.092Z,21.77
2017-08-02T00:37:30.074Z,21.77
2017-08-02T00:38:40.612Z,21.74
2017-08-02T00:39:50.585Z,21.75
2017-08-02T00:41:00.568Z,21.7
2017-08-02T00:42:10.248Z,21.72
2017-08-02T00:43:20.541Z,21.7
2017-08-02T00:44:31.088Z,21.62
2017-08-02T00:45:41.370Z,21.63
2017-08-02T00:46:51.654Z,21.59
2017-08-02T00:48:01.939Z,21.6
2017-08-02T00:49:11.926Z,21.68
2017-08-02T00:50:22.453Z,21.59
2017-08-02T00:51:32.724Z,21.56
2017-08-02T00:52:42.698Z,21.58
2017-08-02T00:53:52.983Z,21.63
2017-08-02T00:55:02.661Z,21.62
2017-08-02T00:56:13.192Z,21.54
2017-08-02T00:57:23.480Z,21.58
2017-08-02T00:58:33.133Z,21.45
2017-08-02T00:59:43.117Z,21.53
2017-08-02T01:00:53.398Z,21.53
2017-08-02T01:02:03.939Z,21.44
2017-08-02T01:03:13.923Z,21.48
2017-08-02T01:04:23.911Z,21.44
2017-08-02T01:05:34.196Z,21.51
2017-08-02T01:06:44.477Z,21.43
2017-08-02T01:07:54.687Z,21.47
2017-08-02T01:09:04.963Z,21.45
2017-08-02T01:10:15.250Z,21.47
2017-08-02T01:11:25.531Z,21.44
2017-08-02T01:12:35.500Z,21.4
2017-08-02T01:13:46.044Z,21.47
2017-08-02T01:14:56.340Z,21.44
2017-08-02T01:16:06.631Z,21.5
2017-08-02T01:17:16.286Z,21.45
2017-08-02T01:18:26.568Z,21.41
2017-08-02T01:19:37.161Z,21.43
2017-08-02T01:20:47.450Z,21.45
2017-08-02T01:21:57.411Z,21.38
2017-08-02T01:23:07.708Z,21.43
2017-08-02T01:24:17.977Z,21.4
2017-08-02T01:25:28.199Z,21.47
2017-08-02T01:26:38.506Z,21.4
2017-08-02T01:27:47.869Z,21.41
2017-08-02T01:28:57.851Z,21.38
2017-08-02T01:30:07.822Z,21.38
2017-08-02T01:31:18.340Z,21.3
2017-08-02T01:32:28.312Z,21.3
2017-08-02T01:33:38.595Z,21.26
2017-08-02T01:34:48.574Z,21.23
2017-08-02T01:35:58.543Z,21.23
2017-08-02T01:37:09.144Z,21.26
2017-08-02T01:38:19.134Z,21.25
2017-08-02T01:39:29.420Z,21.33
2017-08-02T01:40:39.371Z,21.25
2017-08-02T01:41:49.034Z,21.38
2017-08-02T01:42:59.278Z,21.28
2017-08-02T01:44:09.248Z,21.25
2017-08-02T01:45:19.226Z,21.23
2017-08-02T01:46:29.212Z,21.17
2017-08-02T01:47:39.182Z,21.17
2017-08-02T01:48:49.394Z,21.13
2017-08-02T01:49:59.676Z,21.01
2017-08-02T01:51:09.984Z,21.05
2017-08-02T01:52:20.256Z,21.01
2017-08-02T01:53:30.211Z,21.05
2017-08-02T01:54:40.125Z,20.98
2017-08-02T01:55:50.399Z,20.96
2017-08-02T01:57:00.685Z,20.93
2017-08-02T01:58:10.977Z,20.9
2017-08-02T01:59:21.286Z,20.86
2017-08-02T02:00:31.522Z,20.88
2017-08-02T02:01:41.484Z,20.77
2017-08-02T02:02:51.452Z,20.78
2017-08-02T02:04:01.472Z,20.74
2017-08-02T02:05:11.741Z,20.71
2017-08-02T02:06:22.267Z,20.74
2017-08-02T02:07:32.548Z,20.73
2017-08-02T02:08:42.834Z,20.77
2017-08-02T02:10:05.293Z,20.78
2017-08-02T02:11:15.591Z,20.74
2017-08-02T02:12:26.103Z,20.71
2017-08-02T02:13:36.086Z,20.7
2017-08-02T02:14:46.387Z,20.71
2017-08-02T02:15:56.672Z,20.66
2017-08-02T02:17:06.594Z,20.67
2017-08-02T02:18:16.582Z,20.67
2017-08-02T02:19:26.552Z,20.63
2017-08-02T02:20:36.537Z,20.66
2017-08-02T02:21:46.816Z,20.64
2017-08-02T02:22:57.355Z,20.55
2017-08-02T02:24:07.316Z,20.58
2017-08-02T02:25:17.598Z,20.5
2017-08-02T02:26:27.888Z,20.46
2017-08-02T02:27:37.866Z,20.44
2017-08-02T02:28:48.097Z,20.53
2017-08-02T02:29:58.364Z,20.5
2017-08-02T02:31:08.642Z,20.48
2017-08-02T02:32:18.924Z,20.48
2017-08-02T02:33:28.600Z,20.53
2017-08-02T02:34:39.121Z,20.5
2017-08-02T02:35:49.094Z,20.4
2017-08-02T02:36:59.377Z,20.53
2017-08-02T02:38:09.369Z,20.44
2017-08-02T02:39:19.656Z,20.56
2017-08-02T02:40:30.252Z,20.53
2017-08-02T02:41:40.540Z,20.42
2017-08-02T02:42:50.539Z,20.52
2017-08-02T02:44:00.526Z,20.53
2017-08-02T02:45:10.822Z,20.53
2017-08-02T02:46:21.364Z,20.49
2017-08-02T02:47:31.663Z,20.52
2017-08-02T02:48:41.644Z,20.5
2017-08-02T02:49:50.996Z,20.5
2017-08-02T02:51:01.279Z,20.55
2017-08-02T02:52:11.495Z,20.46
2017-08-02T02:53:21.485Z,20.55
2017-08-02T02:54:31.446Z,20.53
2017-08-02T02:55:41.423Z,20.55
2017-08-02T02:56:51.395Z,20.49
2017-08-02T02:58:01.610Z,20.49
2017-08-02T02:59:11.894Z,20.55
2017-08-02T03:00:21.874Z,20.4
2017-08-02T03:01:31.879Z,20.5
2017-08-02T03:02:41.849Z,20.56
2017-08-02T03:03:52.064Z,20.42
2017-08-02T03:05:02.342Z,20.37
2017-08-02T03:06:12.314Z,20.53
2017-08-02T03:07:22.630Z,20.48
2017-08-02T03:08:32.600Z,20.55
2017-08-02T03:09:42.807Z,20.39
2017-08-02T03:10:53.095Z,20.46
2017-08-02T03:12:03.067Z,20.42
2017-08-02T03:13:13.350Z,20.39
2017-08-02T03:14:23.341Z,20.42
2017-08-02T03:15:33.549Z,20.29
2017-08-02T03:16:43.510Z,20.27
2017-08-02T03:17:53.185Z,20.32
2017-08-02T03:19:03.461Z,20.34
2017-08-02T03:20:13.749Z,20.34
2017-08-02T03:21:24.337Z,20.27
2017-08-02T03:22:34.301Z,20.32
2017-08-02T03:23:44.589Z,20.33
2017-08-02T03:24:54.861Z,20.33
2017-08-02T03:26:05.145Z,20.34
2017-08-02T03:27:15.667Z,20.33
2017-08-02T03:28:25.956Z,20.37
2017-08-02T03:29:35.923Z,20.32
2017-08-02T03:30:46.210Z,20.27
2017-08-02T03:31:56.493Z,20.32
2017-08-02T03:33:06.397Z,20.33
2017-08-02T03:34:16.698Z,20.26
2017-08-02T03:35:26.668Z,20.36
2017-08-02T03:36:36.952Z,20.27
2017-08-02T03:37:46.913Z,20.3
2017-08-02T03:38:57.441Z,20.36
2017-08-02T03:40:07.706Z,20.32
2017-08-02T03:41:17.683Z,20.33
2017-08-02T03:42:27.666Z,20.32
2017-08-02T03:43:37.317Z,20.36
2017-08-02T03:44:47.857Z,20.36
2017-08-02T03:45:57.833Z,20.3
2017-08-02T03:47:07.497Z,20.44
2017-08-02T03:48:17.489Z,20.3
2017-08-02T03:49:27.760Z,20.44
2017-08-02T03:50:37.992Z,20.46
2017-08-02T03:51:47.363Z,20.33
2017-08-02T03:52:57.643Z,20.27
2017-08-02T03:54:07.933Z,20.3
2017-08-02T03:55:18.203Z,20.29
2017-08-02T03:56:28.725Z,20.33
2017-08-02T03:57:39.018Z,20.33
2017-08-02T03:58:49.305Z,20.21
2017-08-02T03:59:59.590Z,20.29
2017-08-02T04:01:09.884Z,20.19
2017-08-02T04:02:20.410Z,20.29
2017-08-02T04:03:30.380Z,20.33
2017-08-02T04:04:40.648Z,20.32
2017-08-02T04:05:50.924Z,20.3
2017-08-02T04:07:01.205Z,20.3
2017-08-02T04:08:11.426Z,20.37
2017-08-02T04:09:21.718Z,20.36
2017-08-02T04:10:31.996Z,20.27
2017-08-02T04:11:42.272Z,20.34
2017-08-02T04:12:52.243Z,20.34
2017-08-02T04:14:02.768Z,20.39
2017-08-02T04:15:13.055Z,20.44
2017-08-02T04:16:23.046Z,20.4
2017-08-02T04:17:33.018Z,20.42
2017-08-02T04:18:43.306Z,20.44
2017-08-02T04:19:53.833Z,20.39
2017-08-02T04:21:04.127Z,20.46
2017-08-02T04:22:14.420Z,20.36
2017-08-02T04:23:24.699Z,20.32
2017-08-02T04:24:34.360Z,20.48
2017-08-02T04:25:44.632Z,20.27
2017-08-02T04:26:54.587Z,20.29
2017-08-02T04:28:04.872Z,20.36
2017-08-02T04:29:14.843Z,20.32
2017-08-02T04:30:25.113Z,20.33
2017-08-02T04:31:35.333Z,20.32
2017-08-02T04:32:45.618Z,20.32
2017-08-02T04:33:55.885Z,20.42
2017-08-02T04:35:05.846Z,20.53
2017-08-02T04:36:15.826Z,20.52
2017-08-02T04:37:26.350Z,20.52
2017-08-02T04:38:36.632Z,20.48
2017-08-02T04:39:46.917Z,20.56
2017-08-02T04:40:57.244Z,20.63
2017-08-02T04:42:07.241Z,20.7
2017-08-02T04:43:17.763Z,20.63
2017-08-02T04:44:28.079Z,20.64
2017-08-02T04:45:38.376Z,20.71
2017-08-02T04:46:48.647Z,20.64
2017-08-02T04:47:58.620Z,20.56
2017-08-02T04:49:09.157Z,20.5
2017-08-02T04:50:19.119Z,20.52
2017-08-02T04:51:29.101Z,20.53
2017-08-02T04:52:39.384Z,20.48
2017-08-02T04:53:49.348Z,20.42
2017-08-02T04:54:59.583Z,20.42
2017-08-02T04:56:09.864Z,20.37
2017-08-02T04:57:20.143Z,20.29
2017-08-02T04:58:30.420Z,20.29
2017-08-02T04:59:40.689Z,20.34
2017-08-02T05:00:50.606Z,20.32
2017-08-02T05:02:00.263Z,20.42
2017-08-02T05:03:10.245Z,20.48
2017-08-02T05:04:20.221Z,20.49
2017-08-02T05:05:30.517Z,20.52
2017-08-02T05:06:41.035Z,20.53
2017-08-02T05:07:51.302Z,20.5
2017-08-02T05:09:01.270Z,20.48
2017-08-02T05:10:10.940Z,20.44
2017-08-02T05:11:20.901Z,20.32
2017-08-02T05:12:31.449Z,20.42
2017-08-02T05:13:41.430Z,20.44
2017-08-02T05:14:51.092Z,20.32
2017-08-02T05:16:01.379Z,20.27
2017-08-02T05:17:11.344Z,20.29
2017-08-02T05:18:21.878Z,20.44
2017-08-02T05:19:31.848Z,20.55
2017-08-02T05:20:41.833Z,20.44
2017-08-02T05:21:52.276Z,20.46
2017-08-02T05:23:02.248Z,20.44
2017-08-02T05:24:12.461Z,20.49
2017-08-02T05:25:22.456Z,20.48
2017-08-02T05:26:32.735Z,20.53
2017-08-02T05:27:43.017Z,20.53
2017-08-02T05:28:53.304Z,20.55
2017-08-02T05:30:03.589Z,20.53
2017-08-02T05:31:13.867Z,20.48
2017-08-02T05:32:23.829Z,20.48
2017-08-02T05:33:34.103Z,20.55
2017-08-02T05:34:44.067Z,20.42
2017-08-02T05:35:54.603Z,20.42
2017-08-02T05:37:04.879Z,20.49
2017-08-02T05:38:15.155Z,20.49
2017-08-02T05:39:25.109Z,20.59
2017-08-02T05:40:35.091Z,20.58
2017-08-02T05:41:45.237Z,20.6
2017-08-02T05:42:55.217Z,20.55
2017-08-02T05:44:05.502Z,20.53
2017-08-02T05:45:15.789Z,20.55
2017-08-02T05:46:25.755Z,20.55
2017-08-02T05:47:36.293Z,20.6
2017-08-02T05:48:46.263Z,20.56
2017-08-02T05:49:55.934Z,20.78
2017-08-02T05:51:06.212Z,20.77
2017-08-02T05:52:16.505Z,20.83
2017-08-02T05:53:27.052Z,20.9
2017-08-02T05:54:37.335Z,20.89
2017-08-02T05:55:47.617Z,20.89
2017-08-02T05:56:57.923Z,21
2017-08-02T05:58:08.197Z,20.96
2017-08-02T05:59:18.743Z,21.03
2017-08-02T06:00:28.389Z,21.01
2017-08-02T06:01:38.662Z,21.03
2017-08-02T06:02:48.944Z,21.11
2017-08-02T06:03:58.905Z,21.11
2017-08-02T06:05:09.133Z,21.25
2017-08-02T06:06:19.422Z,21.28
2017-08-02T06:07:29.719Z,21.3
2017-08-02T06:08:39.699Z,21.4
2017-08-02T06:09:50.004Z,21.38
2017-08-02T06:11:00.241Z,21.41
2017-08-02T06:12:10.538Z,21.41
2017-08-02T06:13:20.516Z,21.44
2017-08-02T06:14:30.481Z,21.51
2017-08-02T06:15:40.766Z,21.54
2017-08-02T06:16:50.977Z,21.59
2017-08-02T06:18:01.269Z,21.75
2017-08-02T06:19:11.567Z,21.8
2017-08-02T06:20:21.859Z,21.81
2017-08-02T06:21:32.133Z,21.83
2017-08-02T06:22:42.673Z,22
2017-08-02T06:23:52.948Z,22.16
2017-08-02T06:25:03.245Z,22.26
2017-08-02T06:26:13.230Z,22.34
2017-08-02T06:27:23.503Z,22.41
2017-08-02T06:28:33.721Z,22.47
2017-08-02T06:29:43.073Z,22.47
2017-08-02T06:30:53.370Z,22.52
2017-08-02T06:32:03.673Z,22.59
2017-08-02T06:33:13.668Z,22.51
2017-08-02T06:34:24.241Z,22.7
2017-08-02T06:35:34.229Z,22.71
2017-08-02T06:36:44.507Z,22.63
2017-08-02T06:37:54.189Z,22.52
2017-08-02T06:39:04.510Z,22.62
2017-08-02T06:40:14.779Z,22.74
2017-08-02T06:41:24.762Z,22.74
2017-08-02T06:42:34.733Z,22.83
2017-08-02T06:43:45.036Z,22.93
2017-08-02T06:44:55.325Z,22.88
2017-08-02T06:46:05.560Z,22.83
2017-08-02T06:47:15.560Z,22.86
2017-08-02T06:48:25.854Z,22.83
2017-08-02T06:49:35.818Z,23.01
2017-08-02T06:50:46.109Z,23.07
2017-08-02T06:51:56.638Z,23.23
2017-08-02T06:53:06.616Z,23.16
2017-08-02T06:54:16.932Z,23.13
2017-08-02T06:55:26.934Z,23.33
2017-08-02T06:56:37.227Z,23.37
2017-08-02T06:57:47.456Z,23.48
2017-08-02T06:58:57.452Z,23.32
2017-08-02T07:00:07.740Z,23.36
2017-08-02T07:01:18.034Z,23.37
2017-08-02T07:02:28.317Z,23.47
2017-08-02T07:03:38.227Z,23.44
2017-08-02T07:04:48.514Z,23.56
2017-08-02T07:05:58.818Z,23.71
2017-08-02T07:07:08.833Z,23.73
2017-08-02T07:08:19.135Z,23.76
2017-08-02T07:09:29.666Z,23.86
2017-08-02T07:10:39.631Z,23.88
2017-08-02T07:11:49.924Z,23.73
2017-08-02T07:13:00.207Z,23.63
2017-08-02T07:14:10.500Z,23.56
2017-08-02T07:15:21.052Z,23.56
2017-08-02T07:16:31.331Z,23.56
2017-08-02T07:17:41.304Z,23.59
2017-08-02T07:18:51.601Z,23.66
2017-08-02T07:20:01.268Z,23.59
2017-08-02T07:21:11.808Z,23.62
2017-08-02T07:22:21.174Z,23.56
2017-08-02T07:23:30.850Z,23.49
2017-08-02T07:24:40.822Z,23.52
2017-08-02T07:25:51.115Z,23.47
2017-08-02T07:27:01.337Z,23.58
2017-08-02T07:28:11.317Z,23.54
2017-08-02T07:29:21.614Z,23.49
2017-08-02T07:30:31.594Z,23.44
2017-08-02T07:31:41.875Z,23.29
2017-08-02T07:32:52.090Z,23.29
2017-08-02T07:34:02.078Z,23.2
2017-08-02T07:35:12.083Z,23.16
2017-08-02T07:36:22.367Z,23.07
2017-08-02T07:37:32.666Z,22.98
2017-08-02T07:38:43.185Z,23.06
2017-08-02T07:39:53.468Z,23.1
2017-08-02T07:41:03.752Z,23.17
2017-08-02T07:42:13.723Z,23.33
2017-08-02T07:43:24.014Z,23.48
2017-08-02T07:44:34.228Z,23.58
2017-08-02T07:45:44.530Z,23.7
2017-08-02T07:46:54.507Z,23.81
2017-08-02T07:48:04.180Z,23.86
2017-08-02T07:49:14.453Z,23.91
2017-08-02T07:50:24.699Z,23.96
2017-08-02T07:51:34.971Z,23.88
2017-08-02T07:52:44.938Z,23.88
2017-08-02T07:53:54.603Z,23.76
2017-08-02T07:55:04.886Z,23.71
2017-08-02T07:56:15.111Z,23.59
2017-08-02T07:57:25.401Z,23.7
2017-08-02T07:58:35.687Z,23.82
2017-08-02T07:59:45.969Z,23.86
2017-08-02T08:00:56.254Z,24.01
2017-08-02T08:02:06.493Z,24.03
2017-08-02T08:03:16.784Z,24.09
2017-08-02T08:04:27.079Z,24.19
2017-08-02T08:05:37.376Z,24.22
2017-08-02T08:06:47.041Z,24.31
2017-08-02T08:07:57.277Z,24.47
2017-08-02T08:09:07.577Z,24.5
2017-08-02T08:10:17.868Z,24.66
2017-08-02T08:11:28.312Z,24.78
2017-08-02T08:12:38.595Z,24.66
2017-08-02T08:13:48.823Z,24.63
2017-08-02T08:14:59.114Z,24.61
2017-08-02T08:16:09.397Z,24.5
2017-08-02T08:17:18.758Z,24.53
2017-08-02T08:18:29.042Z,24.47
2017-08-02T08:19:39.268Z,24.32
2017-08-02T08:20:49.245Z,24.31
2017-08-02T08:21:58.898Z,24.24
2017-08-02T08:23:09.190Z,24.32
2017-08-02T08:24:19.179Z,24.28
2017-08-02T08:25:29.712Z,24.28
2017-08-02T08:26:39.993Z,24.32
2017-08-02T08:27:50.295Z,24.34
2017-08-02T08:29:00.256Z,24.29
2017-08-02T08:30:10.239Z,24.4
2017-08-02T08:31:20.776Z,24.51
2017-08-02T08:32:30.775Z,24.46
2017-08-02T08:33:41.087Z,24.41
2017-08-02T08:34:51.369Z,24.41
2017-08-02T08:36:01.343Z,24.29
2017-08-02T08:37:11.890Z,24.32
2017-08-02T08:38:21.881Z,24.5
2017-08-02T08:39:31.869Z,24.46
2017-08-02T08:40:42.168Z,24.51
2017-08-02T08:41:52.462Z,24.61
2017-08-02T08:43:02.700Z,24.68
2017-08-02T08:44:12.998Z,24.51
2017-08-02T08:45:22.963Z,24.58
2017-08-02T08:46:33.269Z,24.68
2017-08-02T08:47:43.543Z,24.84
2017-08-02T08:48:54.083Z,25
2017-08-02T08:50:04.364Z,25.03
2017-08-02T08:51:14.666Z,25.06
2017-08-02T08:52:24.372Z,25.16
2017-08-02T08:53:34.339Z,25.37
2017-08-02T08:54:44.565Z,25.56
2017-08-02T08:55:54.853Z,25.83
2017-08-02T08:57:05.131Z,25.8
2017-08-02T08:58:15.098Z,25.63
2017-08-02T08:59:25.395Z,25.46
2017-08-02T09:00:35.956Z,25.51
2017-08-02T09:01:46.251Z,25.56
2017-08-02T09:02:56.534Z,25.58
2017-08-02T09:04:06.866Z,25.41
2017-08-02T09:05:17.163Z,25.43
2017-08-02T09:06:31.955Z,25.43
2017-08-02T09:07:42.278Z,25.22
2017-08-02T09:08:52.590Z,25.03
2017-08-02T09:10:01.939Z,24.88
2017-08-02T09:11:12.237Z,24.85
2017-08-02T09:12:22.783Z,24.85
2017-08-02T09:13:33.090Z,24.79
2017-08-02T09:14:43.390Z,24.86
2017-08-02T09:15:53.687Z,25.06
2017-08-02T09:17:03.676Z,25.11
2017-08-02T09:18:14.238Z,25.03
2017-08-02T09:19:24.527Z,24.84
2017-08-02T09:20:34.213Z,24.96
2017-08-02T09:21:44.516Z,25.03
2017-08-02T09:22:54.509Z,25.01
2017-08-02T09:24:04.794Z,25.18
2017-08-02T09:25:15.086Z,25.26
2017-08-02T09:26:24.748Z,25.39
2017-08-02T09:27:35.042Z,25.59
2017-08-02T09:28:44.725Z,25.67
2017-08-02T09:29:55.321Z,25.74
2017-08-02T09:31:05.307Z,25.76
2017-08-02T09:32:15.306Z,25.73
2017-08-02T09:33:25.621Z,25.86
2017-08-02T09:34:35.917Z,26.16
2017-08-02T09:35:46.453Z,26.39
2017-08-02T09:36:56.434Z,26.56
2017-08-02T09:38:06.736Z,26.73
2017-08-02T09:39:17.052Z,26.91
2017-08-02T09:40:27.344Z,26.6
2017-08-02T09:41:37.894Z,26.36
2017-08-02T09:42:47.891Z,26.16
2017-08-02T09:43:58.178Z,26.07
2017-08-02T09:45:08.474Z,25.86
2017-08-02T09:46:18.146Z,25.81
2017-08-02T09:47:28.405Z,25.76
2017-08-02T09:48:38.395Z,25.86
2017-08-02T09:49:48.378Z,26.03
2017-08-02T09:50:58.680Z,26.08
2017-08-02T09:52:08.342Z,25.92
2017-08-02T09:53:18.891Z,25.83
2017-08-02T09:54:29.171Z,25.68
2017-08-02T09:55:39.171Z,25.44
2017-08-02T09:56:49.145Z,25.19
2017-08-02T09:57:59.124Z,25.15
2017-08-02T09:59:09.722Z,25.03
2017-08-02T10:00:19.385Z,25.12
2017-08-02T10:01:29.682Z,25.26
2017-08-02T10:02:39.992Z,25.48
2017-08-02T10:03:50.299Z,25.66
2017-08-02T10:05:00.836Z,25.93
2017-08-02T10:06:10.834Z,26.07
2017-08-02T10:07:21.145Z,26.22
2017-08-02T10:08:31.108Z,26.29
2017-08-02T10:09:41.092Z,26.64
2017-08-02T10:10:51.372Z,26.96
2017-08-02T10:12:01.667Z,27.1
2017-08-02T10:13:11.970Z,27.29
2017-08-02T10:14:21.956Z,27.29
2017-08-02T10:15:32.271Z,27.26
2017-08-02T10:16:42.802Z,27.2
2017-08-02T10:17:52.797Z,27.38
2017-08-02T10:19:03.088Z,27.37
2017-08-02T10:20:13.377Z,27.6
2017-08-02T10:21:23.695Z,27.41
2017-08-02T10:22:34.237Z,27.41
2017-08-02T10:23:44.547Z,27.28
2017-08-02T10:24:54.874Z,27.23
2017-08-02T10:26:04.861Z,27.05
2017-08-02T10:27:15.163Z,27.05
2017-08-02T10:28:25.705Z,26.91
2017-08-02T10:29:36.002Z,26.66
2017-08-02T10:30:46.297Z,26.63
2017-08-02T10:31:56.302Z,26.53
2017-08-02T10:33:06.832Z,26.68
2017-08-02T10:34:17.404Z,26.56
2017-08-02T10:35:27.724Z,26.74
2017-08-02T10:36:37.090Z,26.89
2017-08-02T10:37:47.388Z,26.91
2017-08-02T10:38:57.699Z,26.88
2017-08-02T10:40:07.945Z,26.66
2017-08-02T10:41:18.244Z,26.67
2017-08-02T10:42:28.224Z,26.71
2017-08-02T10:43:38.503Z,26.74
2017-08-02T10:44:48.158Z,26.7
2017-08-02T10:45:58.110Z,26.49
2017-08-02T10:47:08.383Z,26.59
2017-08-02T10:48:18.688Z,26.59
2017-08-02T10:49:29.002Z,26.89
2017-08-02T10:50:39.320Z,27.34
2017-08-02T10:51:49.888Z,27.57
2017-08-02T10:53:00.170Z,27.61
2017-08-02T10:54:10.467Z,27.78
2017-08-02T10:55:20.465Z,27.95
2017-08-02T10:56:30.784Z,28.27
2017-08-02T10:57:41.399Z,28.28
2017-08-02T10:58:51.375Z,28.43
2017-08-02T11:00:01.370Z,28.35
2017-08-02T11:01:11.368Z,28.35
2017-08-02T11:02:21.345Z,28.35
2017-08-02T11:03:31.273Z,28.15
2017-08-02T11:04:41.577Z,27.82
2017-08-02T11:05:51.555Z,27.71
2017-08-02T11:07:01.858Z,27.61
2017-08-02T11:08:11.846Z,27.76
2017-08-02T11:09:22.072Z,27.68
2017-08-02T11:10:32.053Z,27.44
2017-08-02T11:11:42.045Z,27.33
2017-08-02T11:12:52.033Z,27.1
2017-08-02T11:14:02.007Z,27.01
2017-08-02T11:15:12.561Z,26.88
2017-08-02T11:16:22.899Z,26.7
2017-08-02T11:17:33.197Z,26.92
2017-08-02T11:18:43.500Z,26.85
2017-08-02T11:19:53.790Z,26.98
2017-08-02T11:21:04.389Z,26.97
2017-08-02T11:22:14.678Z,27.07
2017-08-02T11:23:24.963Z,27.22
2017-08-02T11:24:35.249Z,27.08
2017-08-02T11:25:44.926Z,26.96
2017-08-02T11:26:55.159Z,26.81
2017-08-02T11:28:05.446Z,26.83
2017-08-02T11:29:15.631Z,26.76
2017-08-02T11:30:25.941Z,26.74
2017-08-02T11:31:35.301Z,26.7
2017-08-02T11:32:45.609Z,26.63
2017-08-02T11:33:56.099Z,26.63
2017-08-02T11:35:06.410Z,26.59
2017-08-02T11:36:16.713Z,26.68
2017-08-02T11:37:26.694Z,26.68
2017-08-02T11:38:37.257Z,26.68
2017-08-02T11:39:47.565Z,26.68
2017-08-02T11:40:57.849Z,26.74
2017-08-02T11:42:08.116Z,26.68
2017-08-02T11:43:18.150Z,26.76
2017-08-02T11:44:28.681Z,26.6
2017-08-02T11:45:38.646Z,26.61
2017-08-02T11:46:48.921Z,26.73
2017-08-02T11:47:59.219Z,26.89
2017-08-02T11:49:08.591Z,26.73
2017-08-02T11:50:19.139Z,26.78
2017-08-02T11:51:29.433Z,26.91
2017-08-02T11:52:39.740Z,27.04
2017-08-02T11:53:49.719Z,27.41
2017-08-02T11:55:00.011Z,27.76
2017-08-02T11:56:10.247Z,28
2017-08-02T11:57:20.529Z,28.22
2017-08-02T11:58:30.839Z,28.53
2017-08-02T11:59:41.128Z,28.68
2017-08-02T12:00:51.411Z,28.64
2017-08-02T12:02:01.956Z,28.77
2017-08-02T12:03:12.278Z,29.15
2017-08-02T12:04:22.574Z,29.05
2017-08-02T12:05:32.554Z,28.94
2017-08-02T12:06:42.856Z,28.92
2017-08-02T12:07:53.082Z,28.71
2017-08-02T12:09:03.070Z,28.7
2017-08-02T12:10:13.372Z,28.74
2017-08-02T12:11:23.682Z,28.89
2017-08-02T12:12:33.685Z,29.07
2017-08-02T12:13:43.601Z,29.09
2017-08-02T12:14:53.304Z,29.22
2017-08-02T12:16:03.335Z,29.12
2017-08-02T12:17:13.626Z,29
2017-08-02T12:18:23.915Z,28.93
2017-08-02T12:19:34.480Z,28.45
2017-08-02T12:20:44.787Z,28.46
2017-08-02T12:21:54.788Z,28.3
2017-08-02T12:23:05.098Z,28.41
2017-08-02T12:24:15.076Z,28.38
2017-08-02T12:25:25.613Z,28.22
2017-08-02T12:26:34.968Z,28.23
2017-08-02T12:27:44.651Z,28.03
2017-08-02T12:28:54.630Z,28.08
2017-08-02T12:30:04.916Z,27.88
2017-08-02T12:31:15.459Z,27.83
2017-08-02T12:32:25.138Z,28.1
2017-08-02T12:33:35.432Z,28.53
2017-08-02T12:34:45.718Z,28.67
2017-08-02T12:35:55.994Z,28.74
2017-08-02T12:37:06.537Z,28.87
2017-08-02T12:38:16.832Z,28.83
2017-08-02T12:39:27.105Z,28.31
2017-08-02T12:40:37.405Z,28.15
2017-08-02T12:41:47.711Z,27.97
2017-08-02T12:42:58.247Z,27.95
2017-08-02T12:44:08.234Z,27.83
2017-08-02T12:45:18.513Z,27.79
2017-08-02T12:46:28.827Z,27.76
2017-08-02T12:47:39.102Z,27.82
2017-08-02T12:48:49.646Z,27.6
2017-08-02T12:49:59.933Z,27.68
2017-08-02T12:51:10.245Z,27.76
2017-08-02T12:52:20.232Z,27.57
2017-08-02T12:53:30.218Z,27.38
2017-08-02T12:54:40.455Z,27.4
2017-08-02T12:55:50.433Z,27.41
2017-08-02T12:57:00.722Z,27.47
2017-08-02T12:58:10.717Z,27.44
2017-08-02T12:59:21.010Z,27.72
2017-08-02T13:00:31.539Z,27.9
2017-08-02T13:01:41.823Z,27.81
2017-08-02T13:02:51.824Z,27.6
2017-08-02T13:04:01.816Z,27.53
2017-08-02T13:05:12.149Z,27.5
2017-08-02T13:06:22.704Z,27.5
2017-08-02T13:07:33.006Z,27.48
2017-08-02T13:08:43.288Z,27.41
2017-08-02T13:09:53.574Z,27.45
2017-08-02T13:11:03.239Z,27.26
2017-08-02T13:12:13.458Z,27.13
2017-08-02T13:13:23.118Z,26.97
2017-08-02T13:14:33.423Z,27.08
2017-08-02T13:15:43.722Z,27.03
2017-08-02T13:16:53.709Z,27.1
2017-08-02T13:18:04.299Z,27.04
2017-08-02T13:19:14.598Z,27
2017-08-02T13:20:24.887Z,26.88
2017-08-02T13:21:35.198Z,26.92
2017-08-02T13:22:45.504Z,26.92
2017-08-02T13:23:56.040Z,26.93
2017-08-02T13:25:06.339Z,26.96
2017-08-02T13:26:16.631Z,26.98
2017-08-02T13:27:26.301Z,26.98
2017-08-02T13:28:36.308Z,27.23
2017-08-02T13:29:46.914Z,27.29
2017-08-02T13:30:57.206Z,27.5
2017-08-02T13:32:07.188Z,27.57
2017-08-02T13:33:17.485Z,27.58
2017-08-02T13:34:27.453Z,27.55
2017-08-02T13:35:41.636Z,27.25
2017-08-02T13:36:51.918Z,27.1
2017-08-02T13:38:02.219Z,27.1
2017-08-02T13:39:12.962Z,27.28
2017-08-02T13:40:23.268Z,27.35
2017-08-02T13:41:33.506Z,27.34
2017-08-02T13:42:43.798Z,27.3
2017-08-02T13:43:53.768Z,27.38
2017-08-02T13:45:03.743Z,27.33
2017-08-02T13:46:13.420Z,27.28
2017-08-02T13:47:23.960Z,27.28
2017-08-02T13:48:34.256Z,27.22
2017-08-02T13:49:44.555Z,27.23
2017-08-02T13:50:54.533Z,27.18
2017-08-02T13:52:04.808Z,27.07
2017-08-02T13:53:15.361Z,26.96
2017-08-02T13:54:25.338Z,27.16
2017-08-02T13:55:35.624Z,27.35
2017-08-02T13:56:45.903Z,27.48
2017-08-02T13:57:55.868Z,27.64
2017-08-02T13:59:06.454Z,27.48
2017-08-02T14:00:16.441Z,27.73
2017-08-02T14:01:26.729Z,27.88
2017-08-02T14:02:36.713Z,28.12
2017-08-02T14:03:47.026Z,28.09
2017-08-02T14:04:57.565Z,28.1
2017-08-02T14:06:07.863Z,28.33
2017-08-02T14:07:17.527Z,28.55
2017-08-02T14:08:27.201Z,28.8
2017-08-02T14:09:37.476Z,29.12
2017-08-02T14:10:48.015Z,29.39
2017-08-02T14:11:58.314Z,29.1
2017-08-02T14:13:08.289Z,29.1
2017-08-02T14:14:18.574Z,29
2017-08-02T14:15:28.901Z,28.77
2017-08-02T14:16:39.442Z,28.83
2017-08-02T14:17:49.135Z,28.97
2017-08-02T14:18:59.112Z,29.35
2017-08-02T14:20:09.098Z,29.67
2017-08-02T14:21:19.389Z,29.42
2017-08-02T14:22:33.816Z,29.16
2017-08-02T14:23:44.101Z,29.25
2017-08-02T14:24:54.083Z,29.5
2017-08-02T14:26:03.772Z,29.58
2017-08-02T14:27:14.046Z,29.84
2017-08-02T14:28:23.959Z,30.21
2017-08-02T14:29:33.954Z,30.33
2017-08-02T14:30:44.266Z,30.51
2017-08-02T14:31:54.563Z,30.51
2017-08-02T14:33:04.849Z,30.46
2017-08-02T14:34:15.382Z,30.49
2017-08-02T14:35:25.682Z,30.48
2017-08-02T14:36:35.674Z,30.81
2017-08-02T14:37:45.675Z,30.78
2017-08-02T14:38:55.986Z,31.15
2017-08-02T14:40:05.924Z,31.62
2017-08-02T14:41:15.914Z,32.44
2017-08-02T14:42:26.215Z,32.81
2017-08-02T14:43:36.515Z,32.73
2017-08-02T14:44:46.809Z,32.44
2017-08-02T14:45:57.045Z,31.57
2017-08-02T14:47:07.337Z,31.18
2017-08-02T14:48:17.628Z,30.81
2017-08-02T14:49:27.604Z,30.61
2017-08-02T14:50:37.933Z,30.56
2017-08-02T14:51:48.494Z,30.51
2017-08-02T14:52:58.174Z,30.77
2017-08-02T14:54:08.464Z,31.11
2017-08-02T14:55:18.440Z,31.47
2017-08-02T14:56:28.766Z,32.2
2017-08-02T14:57:38.688Z,32.11
2017-08-02T14:58:48.982Z,32.02
2017-08-02T14:59:59.264Z,32.26
2017-08-02T15:01:09.571Z,32.54
2017-08-02T15:02:19.558Z,32.72
2017-08-02T15:03:30.127Z,32.68
2017-08-02T15:04:40.444Z,32.46
2017-08-02T15:05:50.448Z,32.37
2017-08-02T15:07:00.447Z,32.57